Flight Track Log - Related Links

Times and Time Zones

All times are in EDT time to prevent confusion due to time zone crossing. See the CES5569 flight status page for this flight to view local times or setup timezone preferences in your user account.

Time Position Orientation Groundspeed Altitude Reporting Facility
EDT Latitude Longitude Course Direction KTS MPH feet Rate Location/Type
03:46AM 31.2143 121.3292 330° Northwest 136 157 1,800  Level FlightAware ADS-B (ZSSS / SHA)
03:46AM 31.2162 121.3274 320° Northwest 134 154 2,100 3,333 Climbing FlightAware ADS-B (ZSSS / SHA)
03:46AM 31.2179 121.3254 314° West 133 153 2,300 2,400 Climbing FlightAware ADS-B (ZSSS / SHA)
03:46AM 31.2240 121.3169 308° West 131 151 2,900 2,000 Climbing FlightAware ADS-B (ZSSS / SHA)
03:47AM 31.2296 121.3081 306° West 144 166 3,300 1,800 Climbing FlightAware ADS-B (ZSSS / SHA)
03:47AM 31.2357 121.2981 306° West 159 183 3,800 1,600 Climbing FlightAware ADS-B (ZSSS / SHA)
03:47AM 31.2425 121.2869 306° West 181 208 4,100 1,241 Climbing FlightAware ADS-B (ZSSS / SHA)
03:47AM 31.2497 121.2749 306° West 199 229 4,400 1,655 Climbing FlightAware ADS-B (ZSSS / SHA)
03:48AM 31.2581 121.2610 305° West 223 257 4,900 1,355 Climbing FlightAware ADS-B (ZSSS / SHA)
03:48AM 31.2677 121.2430 297° West 254 292 5,100 571 Climbing FlightAware ADS-B (ZSSS / SHA)
03:48AM 31.2698 121.2362 289° West 259 298 5,100  Level FlightAware ADS-B (ZSSS / SHA)
03:48AM 31.2709 121.2310 283° West 264 304 5,100  Level FlightAware ADS-B (ZSSS / SHA)
03:48AM 31.2715 121.2238 274° West 269 310 5,100  Level FlightAware ADS-B (ZSSS / SHA)
03:48AM 31.2710 121.2156 265° West 275 316 5,100  Level FlightAware ADS-B (ZSSS / SHA)
03:48AM 31.2698 121.2094 256° West 280 322 5,100  Level FlightAware ADS-B (ZSSS / SHA)
03:48AM 31.2675 121.2022 249° West 284 327 5,100  Level FlightAware ADS-B (ZSSS / SHA)
03:48AM 31.2662 121.1991 244° Southwest 288 331 5,100  Level FlightAware ADS-B (ZSSS / SHA)
03:49AM 31.2472 121.1684 234° Southwest 290 334 5,100 130 Level FlightAware ADS-B (ZSSS / SHA)
03:49AM 31.2265 121.1397 220° Southwest 294 338 5,200 400 Climbing FlightAware ADS-B (ZSSS / SHA)
03:49AM 31.2201 121.1348 213° Southwest 297 342 5,300 1,000 Climbing FlightAware ADS-B (ZSSS / SHA)
03:52AM 31.0908 121.0725 202° Southwest  Level Estimated
03:53AM 31.0312 121.0438 202° Southwest  Level Estimated
03:54AM 30.9715 121.0151 202° Southwest  Level Estimated
03:55AM 30.9118 120.9865 202° Southwest  Level Estimated
03:56AM 30.8214 120.9433 202° Southwest  Level Estimated
03:57AM 30.7311 120.9001 202° Southwest  Level Estimated
03:58AM 30.6407 120.8570 202° Southwest  Level Estimated
03:59AM 30.5503 120.8139 202° Southwest  Level Estimated
04:00AM 30.4599 120.7710 202° Southwest  Level Estimated
04:01AM 30.3694 120.7282 202° Southwest  Level Estimated
04:02AM 30.2790 120.6854 202° Southwest  Level Estimated
04:03AM 30.1886 120.6427 202° Southwest  Level Estimated
04:04AM 30.0981 120.6001 202° Southwest  Level Estimated
04:05AM 30.0076 120.5575 202° Southwest  Level Estimated
04:06AM 29.9171 120.5150 202° Southwest  Level Estimated
04:07AM 29.8266 120.4726 202° Southwest  Level Estimated
04:08AM 29.7361 120.4303 202° Southwest  Level Estimated
04:09AM 29.6456 120.3881 202° Southwest  Level Estimated
04:10AM 29.5550 120.3459 202° Southwest  Level Estimated
04:11AM 29.4645 120.3039 202° Southwest  Level Estimated
04:12AM 29.3739 120.2618 202° Southwest  Level Estimated
04:13AM 29.2833 120.2199 202° Southwest  Level Estimated
04:14AM 29.1927 120.1780 202° Southwest  Level Estimated
04:15AM 29.1021 120.1363 202° Southwest  Level Estimated
04:16AM 29.0114 120.0946 202° Southwest  Level Estimated
04:17AM 28.9208 120.0529 202° Southwest  Level Estimated
04:18AM 28.8302 120.0113 202° Southwest  Level Estimated
04:19AM 28.7395 119.9698 202° Southwest  Level Estimated
04:20AM 28.6488 119.9284 202° Southwest  Level Estimated
04:21AM 28.5581 119.8871 202° Southwest  Level Estimated
04:22AM 28.4674 119.8458 202° Southwest  Level Estimated
04:23AM 28.3767 119.8046 202° Southwest  Level Estimated
04:24AM 28.2860 119.7634 202° Southwest  Level Estimated
04:25AM 28.1952 119.7224 202° Southwest  Level Estimated
04:26AM 28.1045 119.6814 202° Southwest  Level Estimated
04:27AM 28.0137 119.6404 202° Southwest  Level Estimated
04:28AM 27.9229 119.5996 202° Southwest  Level Estimated
04:29AM 27.8322 119.5588 202° Southwest  Level Estimated
04:30AM 27.7414 119.5181 202° Southwest  Level Estimated
04:31AM 27.6505 119.4774 202° Southwest  Level Estimated
04:32AM 27.5597 119.4368 202° Southwest  Level Estimated
04:33AM 27.4689 119.3963 202° Southwest  Level Estimated
04:34AM 27.3780 119.3558 202° Southwest  Level Estimated
04:35AM 27.2872 119.3154 202° Southwest  Level Estimated
04:36AM 27.1963 119.2751 202° Southwest  Level Estimated
04:37AM 27.1054 119.2349 202° Southwest  Level Estimated
04:38AM 27.0145 119.1947 202° Southwest  Level Estimated
04:39AM 26.9236 119.1545 201° Southwest  Level Estimated
04:40AM 26.8327 119.1145 201° Southwest  Level Estimated
04:41AM 26.7418 119.0745 201° Southwest  Level Estimated
04:42AM 26.6508 119.0346 201° Southwest  Level Estimated
04:43AM 26.5599 118.9947 201° Southwest  Level Estimated
04:44AM 26.4689 118.9549 201° Southwest  Level Estimated
04:45AM 26.3780 118.9151 201° Southwest  Level Estimated
04:46AM 26.2870 118.8754 201° Southwest  Level Estimated
04:47AM 26.1960 118.8358 201° Southwest  Level Estimated
04:48AM 26.1158 118.8010 201° Southwest  Level Estimated
04:49AM 26.0356 118.7662 201° Southwest  Level Estimated
04:50AM 25.9555 118.7314 201° Southwest  Level Estimated
04:51AM 25.8752 118.6967 201° Southwest  Level Estimated
04:52AM 25.7950 118.6620 201° Southwest  Level Estimated
04:53AM 25.7148 118.6274 201° Southwest  Level Estimated
04:54AM 25.6346 118.5928 201° Southwest  Level Estimated
04:55AM 25.5410 118.5526 201° Southwest  Level Estimated
04:56AM 25.4474 118.5124 201° Southwest  Level Estimated
04:57AM 25.3538 118.4722 201° Southwest  Level Estimated
04:58AM 25.2602 118.4321 201° Southwest  Level Estimated
04:59AM 25.1665 118.3921 201° Southwest  Level Estimated
05:00AM 25.0728 118.3522 201° Southwest  Level Estimated
05:01AM 24.9792 118.3123 201° Southwest  Level Estimated
05:02AM 24.8855 118.2724 201° Southwest  Level Estimated
05:03AM 24.7918 118.2326 201° Southwest  Level Estimated
05:04AM 24.6981 118.1929 201° Southwest  Level Estimated
05:05AM 24.6044 118.1533 201° Southwest  Level Estimated
05:06AM 24.5440 118.1277 201° Southwest  Level Estimated
05:07AM 24.5440 118.1277 North  Level Estimated
05:08AM 24.5440 118.1277 North  Level Estimated
05:09AM 24.5440 118.1277 North  Level Estimated
05:10AM 24.5440 118.1277 North  Level Estimated
05:11AM 24.5440 118.1277 North  Level Estimated
05:12AM 24.5440 118.1277 North  Level Estimated
05:13AM 24.5440 118.1277 North  Level Estimated

Login

Don't have an account? Register now (free) for customized features, flight alerts, and more!